Terminal Aerodrome Forecast
Issued by NWS Goodland, KS

Home | Current Version | Previous Version | Text Only | Print | Product List | Glossary On
Versions: 1 2 3 4 5 6 7 8 9 10 11 12 13
000
FTUS43 KGLD 280558 CCA
TAFGLD
TAF COR
KGLD 280558Z 2806/2906 18014G20KT P6SM SKC WS020/20045KT
     FM280900 27015G20KT P6SM SCT250
     FM281000 31015G20KT P6SM SCT250
     FM281300 34016G23KT P6SM SCT250
     FM281900 01013G19KT P6SM SCT250
     FM282300 04011KT P6SM SCT250=

USA.gov is the U.S. government's official web portal to all federal, state and local government web resources and services.